Time;durP1;ratioP1;P1;durP2;ratioP2;P2;SDS_P1;SDS_P2;PMS_P1;PMS_P2;Temp;Humidity;BMP_temperature;BMP_pressure;BME280_temperature;BME280_humidity;BME280_pressure;Samples;Min_cycle;Max_cycle;Signal;HPM_P1;HPM_P2
2023/02/01 00:02:19;0.00;0.00;0.62;0.00;0.00;0.62;2.73;1.00;;;21.70;25.40;;;;;;2264986;61;20372;-64
2023/02/01 00:04:46;0.00;0.00;0.62;0.00;0.00;0.62;3.10;1.00;;;21.70;24.90;;;;;;2263692;61;20869;-63
2023/02/01 00:07:12;0.00;0.00;0.62;0.00;0.00;0.62;4.40;1.30;;;21.70;24.80;;;;;;2264484;61;20369;-63
2023/02/01 00:09:38;0.00;0.00;0.62;0.00;0.00;0.62;3.03;1.37;;;21.70;24.80;;;;;;2264851;61;20381;-65
2023/02/01 00:12:05;0.00;0.00;0.62;0.00;0.00;0.62;1.80;0.90;;;21.70;24.80;;;;;;2264619;61;20400;-63
2023/02/01 00:14:38;0.00;0.00;0.62;0.00;0.00;0.62;2.43;1.10;;;21.70;24.80;;;;;;2263581;61;20361;-63
2023/02/01 00:17:05;0.00;0.00;0.62;0.00;0.00;0.62;2.73;1.30;;;21.70;24.80;;;;;;2263111;61;20432;-62
2023/02/01 00:19:34;0.00;0.00;0.62;0.00;0.00;0.62;2.17;1.20;;;21.70;24.80;;;;;;2264351;61;21002;-64
2023/02/01 00:22:01;0.00;0.00;0.62;0.00;0.00;0.62;3.70;1.57;;;21.70;24.80;;;;;;2264942;61;20451;-65
2023/02/01 00:24:28;0.00;0.00;0.62;0.00;0.00;0.62;4.40;1.57;;;21.70;25.30;;;;;;2264124;61;20414;-60
2023/02/01 00:26:55;0.00;0.00;0.62;0.00;0.00;0.62;2.37;1.10;;;21.70;24.80;;;;;;2263468;61;20373;-62
2023/02/01 00:29:22;0.00;0.00;0.62;0.00;0.00;0.62;3.03;1.37;;;21.70;24.80;;;;;;2264197;61;20905;-62
2023/02/01 00:31:51;0.00;0.00;0.62;0.00;0.00;0.62;2.47;1.00;;;21.70;24.80;;;;;;2264888;61;20365;-62
2023/02/01 00:34:19;0.00;0.00;0.62;0.00;0.00;0.62;2.80;1.27;;;21.80;24.90;;;;;;2264079;61;20405;-65
2023/02/01 00:36:47;0.00;0.00;0.62;0.00;0.00;0.62;1.80;1.10;;;21.70;24.80;;;;;;2262897;61;20428;-65
2023/02/01 00:39:16;0.00;0.00;0.62;0.00;0.00;0.62;2.50;1.13;;;21.70;24.80;;;;;;2263711;61;20568;-62
2023/02/01 00:41:43;0.00;0.00;0.62;0.00;0.00;0.62;2.60;0.90;;;21.70;24.80;;;;;;2260050;61;20369;-64
2023/02/01 00:44:10;0.00;0.00;0.62;0.00;0.00;0.62;4.07;1.20;;;21.70;24.80;;;;;;2264086;61;20885;-66
2023/02/01 00:46:36;0.00;0.00;0.62;0.00;0.00;0.62;2.47;1.10;;;21.70;24.80;;;;;;2262815;61;20372;-66
2023/02/01 00:49:03;0.00;0.00;0.62;0.00;0.00;0.62;1.77;0.93;;;21.70;24.80;;;;;;2263594;61;20527;-64
2023/02/01 00:51:30;0.00;0.00;0.62;0.00;0.00;0.62;2.77;1.23;;;21.80;25.40;;;;;;2260635;61;20357;-66
2023/02/01 00:53:58;0.00;0.00;0.62;0.00;0.00;0.62;2.37;1.20;;;21.80;24.80;;;;;;2264049;61;20387;-64
2023/02/01 00:56:27;0.00;0.00;0.62;0.00;0.00;0.62;2.83;1.73;;;21.80;24.80;;;;;;2259477;61;20928;-64
2023/02/01 00:58:53;0.00;0.00;0.62;0.00;0.00;0.62;1.60;1.00;;;21.80;24.90;;;;;;2259569;61;20414;-63
2023/02/01 01:01:23;0.00;0.00;0.62;0.00;0.00;0.62;2.53;1.13;;;21.80;24.90;;;;;;2264384;61;20553;-66
2023/02/01 01:03:52;0.00;0.00;0.62;0.00;0.00;0.62;2.90;1.10;;;21.80;24.90;;;;;;2265121;61;20892;-65
2023/02/01 01:06:24;0.00;0.00;0.62;0.00;0.00;0.62;2.93;1.23;;;21.80;24.90;;;;;;2265235;61;20364;-65
2023/02/01 01:08:52;0.00;0.00;0.62;0.00;0.00;0.62;1.60;0.90;;;21.80;24.90;;;;;;2265537;61;20368;-63
2023/02/01 01:11:23;0.00;0.00;0.62;0.00;0.00;0.62;2.23;1.23;;;21.80;24.80;;;;;;2265246;61;20361;-65
2023/02/01 01:13:52;0.00;0.00;0.62;0.00;0.00;0.62;1.87;1.23;;;21.80;24.80;;;;;;2261047;61;20372;-61
2023/02/01 01:16:19;0.00;0.00;0.62;0.00;0.00;0.62;2.80;1.20;;;21.80;24.80;;;;;;2263552;61;20388;-65
2023/02/01 01:18:47;0.00;0.00;0.62;0.00;0.00;0.62;4.13;1.57;;;21.80;24.90;;;;;;2260537;61;20365;-59
2023/02/01 01:21:15;0.00;0.00;0.62;0.00;0.00;0.62;3.70;2.10;;;21.80;24.90;;;;;;2260954;61;20430;-63
2023/02/01 01:23:42;0.00;0.00;0.62;0.00;0.00;0.62;3.07;1.57;;;21.80;24.70;;;;;;2265163;61;20772;-61
2023/02/01 01:26:09;0.00;0.00;0.62;0.00;0.00;0.62;7.20;2.40;;;21.70;24.40;;;;;;2264697;61;20906;-63
2023/02/01 01:28:37;0.00;0.00;0.62;0.00;0.00;0.62;8.13;2.77;;;21.60;23.90;;;;;;2265640;61;20797;-63
2023/02/01 01:31:07;0.00;0.00;0.62;0.00;0.00;0.62;8.63;2.70;;;21.60;23.60;;;;;;2262290;61;20488;-65
2023/02/01 01:33:33;0.00;0.00;0.62;0.00;0.00;0.62;8.33;2.90;;;21.50;23.20;;;;;;2266312;61;20379;-60
2023/02/01 01:36:00;0.00;0.00;0.62;0.00;0.00;0.62;7.40;2.63;;;21.40;23.00;;;;;;2262438;61;20375;-62
2023/02/01 01:38:26;0.00;0.00;0.62;0.00;0.00;0.62;7.97;2.60;;;21.30;22.90;;;;;;2265709;61;20381;-62
2023/02/01 01:40:56;0.00;0.00;0.62;0.00;0.00;0.62;5.20;2.50;;;21.20;22.90;;;;;;2263190;61;20396;-62
2023/02/01 01:43:45;0.00;0.00;0.62;0.00;0.00;0.62;7.57;2.33;;;21.10;22.80;;;;;;2265922;61;20376;-61
2023/02/01 01:46:17;0.00;0.00;0.62;0.00;0.00;0.62;7.43;2.80;;;21.10;22.80;;;;;;2262694;61;20518;-62
2023/02/01 01:48:44;0.00;0.00;0.62;0.00;0.00;0.62;8.37;3.33;;;21.00;22.70;;;;;;2263082;61;20435;-61
2023/02/01 01:51:14;0.00;0.00;0.62;0.00;0.00;0.62;6.33;2.20;;;20.90;22.50;;;;;;2262288;61;20420;-62
2023/02/01 01:53:53;0.00;0.00;0.62;0.00;0.00;0.62;8.07;3.03;;;20.80;22.50;;;;;;2262126;61;20403;-62
2023/02/01 01:56:20;0.00;0.00;0.62;0.00;0.00;0.62;7.17;2.70;;;20.70;22.40;;;;;;2262692;61;20865;-63
2023/02/01 01:58:47;0.00;0.00;0.62;0.00;0.00;0.62;9.50;2.90;;;20.70;22.50;;;;;;2260166;61;20972;-59
2023/02/01 02:01:16;0.00;0.00;0.62;0.00;0.00;0.62;5.90;2.20;;;20.60;22.60;;;;;;2261135;61;20373;-59
2023/02/01 02:03:45;0.00;0.00;0.62;0.00;0.00;0.62;5.53;2.23;;;20.60;22.90;;;;;;2265147;61;20375;-60
2023/02/01 02:06:23;0.00;0.00;0.62;0.00;0.00;0.62;6.13;2.13;;;20.60;23.00;;;;;;2264148;61;20452;-60
2023/02/01 02:08:50;0.00;0.00;0.62;0.00;0.00;0.62;3.80;1.60;;;20.60;23.20;;;;;;2264354;61;20902;-57
2023/02/01 02:11:17;0.00;0.00;0.62;0.00;0.00;0.62;3.53;1.97;;;20.60;23.30;;;;;;2264781;61;20377;-56
2023/02/01 02:13:48;0.00;0.00;0.62;0.00;0.00;0.62;5.67;2.00;;;20.60;23.40;;;;;;2263887;61;20369;-56
2023/02/01 02:16:33;0.00;0.00;0.62;0.00;0.00;0.62;4.30;2.40;;;20.70;23.60;;;;;;2264309;61;20407;-56
2023/02/01 02:19:32;0.00;0.00;0.62;0.00;0.00;0.62;2.53;1.50;;;20.70;23.70;;;;;;2260989;61;20385;-54
2023/02/01 02:22:29;0.00;0.00;0.62;0.00;0.00;0.62;4.20;1.67;;;20.70;23.70;;;;;;2263820;61;20400;-57
2023/02/01 02:25:21;0.00;0.00;0.62;0.00;0.00;0.62;4.60;1.93;;;20.80;23.90;;;;;;2260636;61;20379;-58
2023/02/01 02:27:58;0.00;0.00;0.62;0.00;0.00;0.62;2.70;1.57;;;20.80;23.90;;;;;;2263390;61;20700;-65
2023/02/01 02:31:13;0.00;0.00;0.62;0.00;0.00;0.62;3.27;1.53;;;20.80;23.90;;;;;;2260660;61;20426;-57
2023/02/01 02:33:57;0.00;0.00;0.62;0.00;0.00;0.62;2.73;1.13;;;20.80;23.90;;;;;;2261807;61;20360;-57
2023/02/01 02:36:36;0.00;0.00;0.62;0.00;0.00;0.62;3.77;2.00;;;20.80;24.00;;;;;;2260955;61;20457;-59
2023/02/01 02:39:09;0.00;0.00;0.62;0.00;0.00;0.62;2.70;1.60;;;20.90;24.00;;;;;;2265298;61;20411;-56
2023/02/01 02:47:42;0.00;0.00;0.62;0.00;0.00;0.62;5.17;1.90;;;21.00;24.10;;;;;;2253138;61;20446;-55
2023/02/01 03:04:17;0.00;0.00;0.62;0.00;0.00;0.62;4.23;1.40;;;21.10;24.20;;;;;;2257449;61;20389;-57
2023/02/01 03:06:47;0.00;0.00;0.62;0.00;0.00;0.62;3.30;1.60;;;21.10;24.20;;;;;;2251945;61;20363;-56
2023/02/01 03:09:22;0.00;0.00;0.62;0.00;0.00;0.62;2.50;1.40;;;21.10;24.20;;;;;;2256296;61;20402;-57
2023/02/01 03:14:41;0.00;0.00;0.62;0.00;0.00;0.62;3.03;1.33;;;21.10;24.20;;;;;;2252899;61;20362;-58
2023/02/01 03:17:13;0.00;0.00;0.62;0.00;0.00;0.62;5.03;1.90;;;21.10;24.20;;;;;;2252876;61;20383;-61
2023/02/01 03:19:44;0.00;0.00;0.62;0.00;0.00;0.62;2.90;1.40;;;21.20;24.20;;;;;;2256826;61;20382;-60
2023/02/01 03:22:15;0.00;0.00;0.62;0.00;0.00;0.62;2.80;1.50;;;21.20;24.20;;;;;;2252584;61;20453;-60
2023/02/01 03:24:46;0.00;0.00;0.62;0.00;0.00;0.62;3.20;1.50;;;21.20;24.20;;;;;;2252783;61;20370;-61
2023/02/01 03:27:19;0.00;0.00;0.62;0.00;0.00;0.62;3.80;1.20;;;21.20;24.20;;;;;;2256440;61;20370;-59
2023/02/01 03:29:54;0.00;0.00;0.62;0.00;0.00;0.62;3.63;1.33;;;21.20;24.10;;;;;;2253162;61;20417;-59
2023/02/01 03:32:21;0.00;0.00;0.62;0.00;0.00;0.62;2.43;1.30;;;21.20;24.10;;;;;;2253306;61;20376;-60
2023/02/01 03:34:48;0.00;0.00;0.62;0.00;0.00;0.62;3.83;1.67;;;21.20;24.60;;;;;;2252669;61;20369;-59
2023/02/01 03:37:24;0.00;0.00;0.62;0.00;0.00;0.62;3.27;1.40;;;21.20;24.10;;;;;;2252891;61;20486;-57
2023/02/01 03:39:59;0.00;0.00;0.62;0.00;0.00;0.62;3.10;1.50;;;21.30;24.20;;;;;;2253193;61;20393;-58
2023/02/01 03:42:32;0.00;0.00;0.62;0.00;0.00;0.62;2.47;1.10;;;21.30;24.10;;;;;;2256851;61;20371;-61
2023/02/01 03:45:06;0.00;0.00;0.62;0.00;0.00;0.62;2.40;1.37;;;21.30;24.10;;;;;;2252396;61;20363;-59
2023/02/01 03:47:37;0.00;0.00;0.62;0.00;0.00;0.62;2.63;1.10;;;21.30;24.00;;;;;;2253395;61;20361;-59
2023/02/01 03:50:09;0.00;0.00;0.62;0.00;0.00;0.62;3.73;1.87;;;21.30;24.10;;;;;;2256926;61;20390;-57
2023/02/01 03:52:43;0.00;0.00;0.62;0.00;0.00;0.62;3.80;1.93;;;21.30;24.00;;;;;;2256686;61;20382;-62
2023/02/01 03:55:12;0.00;0.00;0.62;0.00;0.00;0.62;2.53;1.43;;;21.30;24.00;;;;;;2253557;61;20891;-62
2023/02/01 03:57:45;0.00;0.00;0.62;0.00;0.00;0.62;1.80;1.03;;;21.30;24.00;;;;;;2252402;61;20387;-62
2023/02/01 04:00:18;0.00;0.00;0.62;0.00;0.00;0.62;4.07;1.10;;;21.30;24.00;;;;;;2257361;61;20395;-58
2023/02/01 04:02:45;0.00;0.00;0.62;0.00;0.00;0.62;2.80;1.60;;;21.30;24.00;;;;;;2257794;61;20371;-57
2023/02/01 04:05:12;0.00;0.00;0.62;0.00;0.00;0.62;2.47;1.30;;;21.30;24.00;;;;;;2252018;61;20362;-57
2023/02/01 04:07:45;0.00;0.00;0.62;0.00;0.00;0.62;2.50;1.43;;;21.30;24.00;;;;;;2252943;61;20363;-59
2023/02/01 04:10:12;0.00;0.00;0.62;0.00;0.00;0.62;2.83;1.37;;;21.40;24.10;;;;;;2257358;61;20387;-60
2023/02/01 04:12:39;0.00;0.00;0.62;0.00;0.00;0.62;2.27;1.20;;;21.30;24.00;;;;;;2252568;61;20381;-56
2023/02/01 04:15:07;0.00;0.00;0.62;0.00;0.00;0.62;1.87;1.00;;;21.30;24.00;;;;;;2257207;61;20883;-58
2023/02/01 04:17:34;0.00;0.00;0.62;0.00;0.00;0.62;2.17;1.10;;;21.40;24.00;;;;;;2257225;61;20391;-56
2023/02/01 04:20:00;0.00;0.00;0.62;0.00;0.00;0.62;2.60;1.20;;;21.30;23.90;;;;;;2256509;61;20864;-60
2023/02/01 04:22:27;0.00;0.00;0.62;0.00;0.00;0.62;2.77;1.57;;;21.30;24.00;;;;;;2256532;61;20405;-61
2023/02/01 04:24:54;0.00;0.00;0.62;0.00;0.00;0.62;2.80;1.43;;;21.40;24.00;;;;;;2257168;61;20775;-59
2023/02/01 04:27:21;0.00;0.00;0.62;0.00;0.00;0.62;3.00;1.40;;;21.40;24.00;;;;;;2256260;61;20367;-61
2023/02/01 04:30:10;0.00;0.00;0.62;0.00;0.00;0.62;1.83;1.10;;;21.40;24.00;;;;;;2257028;61;20389;-56
2023/02/01 04:32:55;0.00;0.00;0.62;0.00;0.00;0.62;3.50;1.43;;;21.40;24.00;;;;;;2256935;61;20433;-66
2023/02/01 04:35:40;0.00;0.00;0.62;0.00;0.00;0.62;4.10;1.50;;;21.40;24.00;;;;;;2256891;61;20396;-58
2023/02/01 04:38:26;0.00;0.00;0.62;0.00;0.00;0.62;3.60;1.03;;;21.40;24.00;;;;;;2256624;61;20469;-60
2023/02/01 04:41:12;0.00;0.00;0.62;0.00;0.00;0.62;3.00;1.33;;;21.30;24.00;;;;;;2257837;61;20971;-58
2023/02/01 04:43:57;0.00;0.00;0.62;0.00;0.00;0.62;2.43;1.17;;;21.30;24.00;;;;;;2678241;45;20360;-55
2023/02/01 04:46:42;0.00;0.00;0.62;0.00;0.00;0.62;2.37;1.30;;;21.30;24.00;;;;;;2265014;61;20406;-60
2023/02/01 04:49:27;0.00;0.00;0.62;0.00;0.00;0.62;2.10;1.30;;;21.30;24.00;;;;;;2264608;61;20380;-58
2023/02/01 04:52:12;0.00;0.00;0.62;0.00;0.00;0.62;2.23;1.27;;;21.30;24.00;;;;;;2265569;61;20364;-58
2023/02/01 04:54:59;0.00;0.00;0.62;0.00;0.00;0.62;1.80;1.00;;;21.30;24.00;;;;;;2265601;61;20430;-60
2023/02/01 04:57:45;0.00;0.00;0.62;0.00;0.00;0.62;2.60;1.10;;;21.30;24.00;;;;;;2264515;61;20388;-60
2023/02/01 05:00:32;0.00;0.00;0.62;0.00;0.00;0.62;2.60;1.30;;;21.30;24.00;;;;;;2265483;61;20415;-56
2023/02/01 05:03:17;0.00;0.00;0.62;0.00;0.00;0.62;3.33;1.60;;;21.30;24.10;;;;;;2265667;61;20978;-58
2023/02/01 05:06:04;0.00;0.00;0.62;0.00;0.00;0.62;2.63;1.20;;;21.30;24.10;;;;;;2265268;61;20355;-55
2023/02/01 05:08:49;0.00;0.00;0.62;0.00;0.00;0.62;1.90;0.90;;;21.30;24.10;;;;;;2265994;61;20364;-58
2023/02/01 05:14:39;0.00;0.00;0.62;0.00;0.00;0.62;1.73;0.93;;;21.30;24.10;;;;;;2265445;61;20864;-57
2023/02/01 05:17:24;0.00;0.00;0.62;0.00;0.00;0.62;2.27;1.30;;;21.30;24.10;;;;;;2265567;61;20391;-61
2023/02/01 05:20:10;0.00;0.00;0.62;0.00;0.00;0.62;2.33;1.10;;;21.30;24.10;;;;;;2265263;61;20415;-55
2023/02/01 05:22:55;0.00;0.00;0.62;0.00;0.00;0.62;3.13;1.10;;;21.30;24.10;;;;;;2265414;61;20366;-56
2023/02/01 05:25:40;0.00;0.00;0.62;0.00;0.00;0.62;3.20;1.50;;;21.30;24.20;;;;;;2265727;61;20367;-58
2023/02/01 05:28:25;0.00;0.00;0.62;0.00;0.00;0.62;2.00;1.10;;;21.30;24.70;;;;;;2265163;61;20387;-61
2023/02/01 05:31:12;0.00;0.00;0.62;0.00;0.00;0.62;1.80;0.77;;;21.30;24.10;;;;;;2265519;61;20384;-58
2023/02/01 05:33:57;0.00;0.00;0.62;0.00;0.00;0.62;2.20;1.30;;;21.30;24.20;;;;;;2264577;61;20364;-60
2023/02/01 05:36:42;0.00;0.00;0.62;0.00;0.00;0.62;2.73;1.13;;;21.30;24.20;;;;;;2264806;61;20468;-54
2023/02/01 05:39:27;0.00;0.00;0.62;0.00;0.00;0.62;3.17;1.07;;;21.30;24.20;;;;;;2265296;61;20464;-59
2023/02/01 05:42:11;0.00;0.00;0.62;0.00;0.00;0.62;1.40;0.80;;;21.30;24.20;;;;;;2260990;61;20364;-56
2023/02/01 05:44:56;0.00;0.00;0.62;0.00;0.00;0.62;1.83;0.90;;;21.30;24.20;;;;;;2264721;61;20387;-60
2023/02/01 05:47:42;0.00;0.00;0.62;0.00;0.00;0.62;2.13;0.90;;;21.30;24.20;;;;;;2264734;61;20376;-61
2023/02/01 05:50:27;0.00;0.00;0.62;0.00;0.00;0.62;1.73;0.90;;;21.30;24.20;;;;;;2264889;61;20426;-59
2023/02/01 05:53:15;0.00;0.00;0.62;0.00;0.00;0.62;2.03;1.30;;;21.30;24.20;;;;;;2265183;61;20383;-61
2023/02/01 05:56:00;0.00;0.00;0.62;0.00;0.00;0.62;2.60;1.27;;;21.30;24.80;;;;;;2264408;61;20391;-61
2023/02/01 05:58:45;0.00;0.00;0.62;0.00;0.00;0.62;2.20;1.20;;;21.30;24.20;;;;;;2264768;61;20397;-61
2023/02/01 06:01:30;0.00;0.00;0.62;0.00;0.00;0.62;2.23;0.90;;;21.30;24.20;;;;;;2265592;61;20452;-58
2023/02/01 06:04:16;0.00;0.00;0.62;0.00;0.00;0.62;2.00;0.97;;;21.30;24.20;;;;;;2264839;61;20368;-57
2023/02/01 06:07:00;0.00;0.00;0.62;0.00;0.00;0.62;3.10;1.43;;;21.30;24.20;;;;;;2265921;61;20371;-56
2023/02/01 06:09:45;0.00;0.00;0.62;0.00;0.00;0.62;3.93;1.13;;;21.30;24.20;;;;;;2265675;61;20387;-55
2023/02/01 06:12:30;0.00;0.00;0.62;0.00;0.00;0.62;1.80;1.00;;;21.30;24.20;;;;;;2265622;61;20372;-56
2023/02/01 06:15:16;0.00;0.00;0.62;0.00;0.00;0.62;1.80;1.10;;;21.30;24.20;;;;;;2266101;61;20455;-58
2023/02/01 06:18:01;0.00;0.00;0.62;0.00;0.00;0.62;2.37;0.90;;;21.30;24.20;;;;;;2265301;61;20387;-62
2023/02/01 06:20:53;0.00;0.00;0.62;0.00;0.00;0.62;2.30;1.00;;;21.30;24.30;;;;;;2265326;61;20514;-55
2023/02/01 06:23:38;0.00;0.00;0.62;0.00;0.00;0.62;2.17;1.00;;;21.30;24.20;;;;;;2266127;61;20364;-60
2023/02/01 06:26:23;0.00;0.00;0.62;0.00;0.00;0.62;2.30;1.03;;;21.30;24.20;;;;;;2265139;61;20383;-59
2023/02/01 06:29:10;0.00;0.00;0.62;0.00;0.00;0.62;2.10;0.90;;;21.30;24.20;;;;;;2266224;61;20755;-56
2023/02/01 06:31:55;0.00;0.00;0.62;0.00;0.00;0.62;2.27;1.33;;;21.30;24.30;;;;;;2265599;61;20410;-59
2023/02/01 06:34:40;0.00;0.00;0.62;0.00;0.00;0.62;1.70;0.90;;;21.30;24.20;;;;;;2266058;61;20398;-57
2023/02/01 06:37:27;0.00;0.00;0.62;0.00;0.00;0.62;1.53;0.90;;;21.30;24.20;;;;;;2266195;61;20419;-60
2023/02/01 06:40:12;0.00;0.00;0.62;0.00;0.00;0.62;1.90;1.00;;;21.30;24.20;;;;;;2265828;61;20977;-53
2023/02/01 06:42:58;0.00;0.00;0.62;0.00;0.00;0.62;3.23;1.23;;;21.30;24.20;;;;;;2262641;61;20364;-57
2023/02/01 06:45:43;0.00;0.00;0.62;0.00;0.00;0.62;1.70;0.83;;;21.30;24.20;;;;;;2266278;61;20442;-59
2023/02/01 06:48:27;0.00;0.00;0.62;0.00;0.00;0.62;3.10;1.47;;;21.30;24.30;;;;;;2265136;61;20340;-60
2023/02/01 06:51:21;0.00;0.00;0.62;0.00;0.00;0.62;1.83;0.90;;;21.30;24.20;;;;;;2266064;61;20430;-54
2023/02/01 06:54:07;0.00;0.00;0.62;0.00;0.00;0.62;2.23;1.30;;;21.30;24.30;;;;;;2265258;61;20503;-54
2023/02/01 06:56:52;0.00;0.00;0.62;0.00;0.00;0.62;2.23;1.00;;;21.30;24.30;;;;;;2265613;61;20388;-60
2023/02/01 06:59:37;0.00;0.00;0.62;0.00;0.00;0.62;3.07;1.13;;;21.30;24.20;;;;;;2265878;61;20935;-59
2023/02/01 07:02:22;0.00;0.00;0.62;0.00;0.00;0.62;2.30;1.30;;;21.30;24.30;;;;;;2264389;61;20773;-55
2023/02/01 07:05:08;0.00;0.00;0.62;0.00;0.00;0.62;3.40;1.23;;;21.30;24.20;;;;;;2264000;61;20851;-58
2023/02/01 07:07:53;0.00;0.00;0.62;0.00;0.00;0.62;2.10;1.40;;;21.30;24.30;;;;;;2264180;61;20356;-59
2023/02/01 07:10:39;0.00;0.00;0.62;0.00;0.00;0.62;2.30;1.43;;;21.30;24.30;;;;;;2263759;61;20415;-60
2023/02/01 07:13:24;0.00;0.00;0.62;0.00;0.00;0.62;3.63;1.20;;;21.30;24.30;;;;;;2265387;61;20884;-56
2023/02/01 07:16:12;0.00;0.00;0.62;0.00;0.00;0.62;3.17;2.30;;;21.30;24.30;;;;;;2266381;61;20395;-60
2023/02/01 07:18:56;0.00;0.00;0.62;0.00;0.00;0.62;2.87;1.67;;;21.30;24.30;;;;;;2263269;61;20423;-59
2023/02/01 07:21:41;0.00;0.00;0.62;0.00;0.00;0.62;3.37;2.00;;;21.30;24.30;;;;;;2266759;61;20372;-58
2023/02/01 07:24:25;0.00;0.00;0.62;0.00;0.00;0.62;3.47;1.70;;;21.30;24.30;;;;;;2266360;61;20395;-57
2023/02/01 07:27:11;0.00;0.00;0.62;0.00;0.00;0.62;2.30;1.40;;;21.30;24.30;;;;;;2265803;61;20477;-58
2023/02/01 07:29:59;0.00;0.00;0.62;0.00;0.00;0.62;3.40;1.20;;;21.30;24.30;;;;;;2266542;61;20396;-56
2023/02/01 07:32:45;0.00;0.00;0.62;0.00;0.00;0.62;2.23;1.40;;;21.30;24.30;;;;;;2265493;61;20364;-61
2023/02/01 07:35:30;0.00;0.00;0.62;0.00;0.00;0.62;2.93;1.93;;;21.30;24.30;;;;;;2265734;61;20352;-60
2023/02/01 07:38:15;0.00;0.00;0.62;0.00;0.00;0.62;3.23;1.50;;;21.30;24.30;;;;;;2265740;61;20548;-59
2023/02/01 07:41:01;0.00;0.00;0.62;0.00;0.00;0.62;2.50;1.37;;;21.30;24.90;;;;;;2266091;61;21012;-60
2023/02/01 07:43:48;0.00;0.00;0.62;0.00;0.00;0.62;2.70;1.70;;;21.30;24.40;;;;;;2265843;61;20368;-60
2023/02/01 07:46:32;0.00;0.00;0.62;0.00;0.00;0.62;3.17;1.23;;;21.30;24.40;;;;;;2265418;61;20414;-60
2023/02/01 07:49:17;0.00;0.00;0.62;0.00;0.00;0.62;3.63;1.80;;;21.30;24.40;;;;;;2266180;61;20383;-55
2023/02/01 07:52:02;0.00;0.00;0.62;0.00;0.00;0.62;2.50;1.10;;;21.30;24.40;;;;;;2266615;61;20356;-59
2023/02/01 07:54:47;0.00;0.00;0.62;0.00;0.00;0.62;2.90;1.43;;;21.30;24.40;;;;;;2265070;61;20364;-58
2023/02/01 07:57:32;0.00;0.00;0.62;0.00;0.00;0.62;2.30;1.20;;;21.30;24.40;;;;;;2264843;61;20380;-58
2023/02/01 08:03:23;0.00;0.00;0.62;0.00;0.00;0.62;4.93;2.30;;;21.30;24.40;;;;;;2266007;61;20418;-61
2023/02/01 08:06:08;0.00;0.00;0.62;0.00;0.00;0.62;7.73;2.97;;;21.20;23.40;;;;;;2261515;61;20396;-58
2023/02/01 08:08:54;0.00;0.00;0.62;0.00;0.00;0.62;10.17;3.27;;;21.00;22.90;;;;;;2265993;61;20357;-57
2023/02/01 08:11:39;0.00;0.00;0.62;0.00;0.00;0.62;6.50;3.33;;;20.90;22.80;;;;;;2264763;61;20363;-64
2023/02/01 08:14:24;0.00;0.00;0.62;0.00;0.00;0.62;8.23;2.73;;;20.70;22.70;;;;;;2264463;61;20368;-66
2023/02/01 08:17:10;0.00;0.00;0.62;0.00;0.00;0.62;6.40;2.80;;;20.50;22.60;;;;;;2262948;61;20437;-64
2023/02/01 08:19:54;0.00;0.00;0.62;0.00;0.00;0.62;7.23;3.20;;;20.30;22.60;;;;;;2263234;61;20430;-63
2023/02/01 08:22:39;0.00;0.00;0.62;0.00;0.00;0.62;11.40;3.80;;;20.10;22.80;;;;;;2264725;61;20387;-63
2023/02/01 08:25:25;0.00;0.00;0.62;0.00;0.00;0.62;7.50;3.43;;;19.80;22.80;;;;;;2264709;61;20928;-63
2023/02/01 08:28:11;0.00;0.00;0.62;0.00;0.00;0.62;8.30;2.93;;;19.70;23.00;;;;;;2264945;61;20406;-61
2023/02/01 08:30:55;0.00;0.00;0.62;0.00;0.00;0.62;9.23;3.70;;;19.50;23.20;;;;;;2264455;61;20407;-63
2023/02/01 08:33:43;0.00;0.00;0.62;0.00;0.00;0.62;8.87;2.90;;;19.30;23.30;;;;;;2265167;61;20360;-61
2023/02/01 08:36:30;0.00;0.00;0.62;0.00;0.00;0.62;10.70;3.70;;;19.10;23.40;;;;;;2265616;61;20494;-64
2023/02/01 08:39:15;0.00;0.00;0.62;0.00;0.00;0.62;7.43;3.00;;;19.00;23.40;;;;;;2265048;61;20843;-63
2023/02/01 08:45:05;0.00;0.00;0.62;0.00;0.00;0.62;8.50;3.00;;;18.60;23.50;;;;;;2261643;61;20341;-66
2023/02/01 08:47:50;0.00;0.00;0.62;0.00;0.00;0.62;7.80;2.50;;;18.50;23.70;;;;;;2261710;61;20867;-60
2023/02/01 08:50:36;0.00;0.00;0.62;0.00;0.00;0.62;7.03;2.47;;;18.30;23.70;;;;;;2261080;61;20448;-61
2023/02/01 08:53:22;0.00;0.00;0.62;0.00;0.00;0.62;6.23;2.00;;;18.30;23.90;;;;;;2264967;61;20390;-61
2023/02/01 08:56:06;0.00;0.00;0.62;0.00;0.00;0.62;7.60;2.90;;;18.10;23.90;;;;;;2265450;61;20865;-62
2023/02/01 08:58:51;0.00;0.00;0.62;0.00;0.00;0.62;6.70;2.70;;;18.00;24.10;;;;;;2265792;61;20927;-65
2023/02/01 09:01:36;0.00;0.00;0.62;0.00;0.00;0.62;13.07;3.33;;;17.90;24.10;;;;;;2264218;61;20460;-62
2023/02/01 09:04:21;0.00;0.00;0.62;0.00;0.00;0.62;12.37;3.73;;;17.80;24.20;;;;;;2262902;61;20403;-62
2023/02/01 09:07:08;0.00;0.00;0.62;0.00;0.00;0.62;11.63;3.67;;;17.70;24.30;;;;;;2266367;61;20352;-61
2023/02/01 09:09:54;0.00;0.00;0.62;0.00;0.00;0.62;11.47;4.50;;;17.60;24.30;;;;;;2265449;61;20475;-62
2023/02/01 09:12:39;0.00;0.00;0.62;0.00;0.00;0.62;7.70;2.90;;;17.50;24.40;;;;;;2265391;61;20347;-62
2023/02/01 09:15:24;0.00;0.00;0.62;0.00;0.00;0.62;6.37;3.17;;;17.40;24.60;;;;;;2265342;61;20360;-63
2023/02/01 09:18:09;0.00;0.00;0.62;0.00;0.00;0.62;6.63;3.27;;;17.40;24.80;;;;;;2264777;61;20480;-63
2023/02/01 09:20:53;0.00;0.00;0.62;0.00;0.00;0.62;9.60;2.97;;;17.30;24.70;;;;;;2274160;61;20388;-59
2023/02/01 09:23:40;0.00;0.00;0.62;0.00;0.00;0.62;10.50;2.90;;;17.40;24.80;;;;;;2264690;61;20770;-64
2023/02/01 09:26:26;0.00;0.00;0.62;0.00;0.00;0.62;8.83;2.50;;;17.40;25.20;;;;;;2266627;61;20372;-62
2023/02/01 09:29:11;0.00;0.00;0.62;0.00;0.00;0.62;6.70;3.07;;;17.40;25.30;;;;;;2267056;61;20415;-61
2023/02/01 09:31:55;0.00;0.00;0.62;0.00;0.00;0.62;7.13;2.97;;;17.40;25.40;;;;;;2261978;61;20472;-65
2023/02/01 09:34:40;0.00;0.00;0.62;0.00;0.00;0.62;8.73;3.50;;;17.50;25.50;;;;;;2280954;61;20364;-63
2023/02/01 09:37:25;0.00;0.00;0.62;0.00;0.00;0.62;5.40;2.13;;;17.60;25.60;;;;;;2261075;61;20392;-64
2023/02/01 09:40:15;0.00;0.00;0.62;0.00;0.00;0.62;6.63;2.50;;;17.60;25.60;;;;;;2261341;61;20494;-64
2023/02/01 09:43:18;0.00;0.00;0.62;0.00;0.00;0.62;5.70;2.50;;;17.70;25.60;;;;;;2262517;61;20365;-63
2023/02/01 09:46:18;0.00;0.00;0.62;0.00;0.00;0.62;3.63;1.80;;;17.80;25.60;;;;;;2260335;61;20388;-64
2023/02/01 09:49:11;0.00;0.00;0.62;0.00;0.00;0.62;5.37;1.90;;;17.90;25.60;;;;;;2498721;53;20439;-63
2023/02/01 09:51:57;0.00;0.00;0.62;0.00;0.00;0.62;5.00;2.03;;;18.00;25.50;;;;;;2261332;61;20396;-66
2023/02/01 09:54:47;0.00;0.00;0.62;0.00;0.00;0.62;5.93;2.43;;;18.00;25.40;;;;;;2260787;61;20369;-65
2023/02/01 09:57:47;0.00;0.00;0.62;0.00;0.00;0.62;4.07;2.40;;;18.10;25.50;;;;;;2260552;61;20385;-66
2023/02/01 10:00:37;0.00;0.00;0.62;0.00;0.00;0.62;3.77;1.80;;;18.10;25.30;;;;;;2261243;61;20431;-65
2023/02/01 10:03:12;0.00;0.00;0.62;0.00;0.00;0.62;4.43;2.03;;;18.20;25.30;;;;;;2263058;61;20357;-64
2023/02/01 10:06:00;0.00;0.00;0.62;0.00;0.00;0.62;4.00;3.07;;;18.30;25.40;;;;;;2262560;61;20671;-65
2023/02/01 10:08:38;0.00;0.00;0.62;0.00;0.00;0.62;5.80;2.33;;;18.40;25.50;;;;;;2262634;61;20373;-66
2023/02/01 10:11:21;0.00;0.00;0.62;0.00;0.00;0.62;4.60;1.90;;;18.40;25.50;;;;;;2262501;61;20435;-65
2023/02/01 10:13:57;0.00;0.00;0.62;0.00;0.00;0.62;4.43;1.90;;;18.50;25.50;;;;;;2262634;61;20357;-62
2023/02/01 10:16:38;0.00;0.00;0.62;0.00;0.00;0.62;2.73;1.60;;;18.50;25.50;;;;;;2262181;61;20836;-66
2023/02/01 10:19:21;0.00;0.00;0.62;0.00;0.00;0.62;3.70;1.90;;;18.60;25.50;;;;;;2262271;61;21106;-65
2023/02/01 10:21:54;0.00;0.00;0.62;0.00;0.00;0.62;4.60;2.23;;;18.70;25.50;;;;;;2262029;61;20801;-64
2023/02/01 10:24:45;0.00;0.00;0.62;0.00;0.00;0.62;2.40;1.50;;;18.70;25.40;;;;;;2258921;61;20439;-65
2023/02/01 10:27:17;0.00;0.00;0.62;0.00;0.00;0.62;2.50;1.57;;;18.80;25.40;;;;;;2253224;61;20365;-65
2023/02/01 10:29:49;0.00;0.00;0.62;0.00;0.00;0.62;2.60;1.70;;;18.90;25.50;;;;;;2262706;61;20381;-62
2023/02/01 10:32:21;0.00;0.00;0.62;0.00;0.00;0.62;3.50;1.87;;;18.90;25.40;;;;;;2260956;61;20358;-66
2023/02/01 10:34:55;0.00;0.00;0.62;0.00;0.00;0.62;2.90;1.70;;;18.90;25.40;;;;;;2259323;61;20377;-63
2023/02/01 10:37:28;0.00;0.00;0.62;0.00;0.00;0.62;3.73;2.00;;;19.00;25.40;;;;;;2262460;61;20868;-62
2023/02/01 10:39:56;0.00;0.00;0.62;0.00;0.00;0.62;3.23;1.90;;;19.10;25.40;;;;;;2263153;61;20431;-61
2023/02/01 10:42:26;0.00;0.00;0.62;0.00;0.00;0.62;3.47;1.53;;;19.10;25.40;;;;;;2264033;61;20437;-62
2023/02/01 10:44:57;0.00;0.00;0.62;0.00;0.00;0.62;2.93;2.00;;;19.10;25.40;;;;;;2263326;61;20381;-63
2023/02/01 10:47:24;0.00;0.00;0.62;0.00;0.00;0.62;3.77;1.90;;;19.20;25.40;;;;;;2262451;61;20419;-64
2023/02/01 10:50:02;0.00;0.00;0.62;0.00;0.00;0.62;3.83;2.03;;;19.20;25.30;;;;;;2262519;61;20390;-62
2023/02/01 10:52:40;0.00;0.00;0.62;0.00;0.00;0.62;4.10;2.37;;;19.30;25.40;;;;;;2261647;61;20369;-63
2023/02/01 10:55:49;0.00;0.00;0.62;0.00;0.00;0.62;3.87;1.67;;;19.40;25.40;;;;;;2262383;61;20826;-63
2023/02/01 10:58:17;0.00;0.00;0.62;0.00;0.00;0.62;2.73;1.80;;;19.40;25.30;;;;;;2263483;61;20430;-63
2023/02/01 11:00:53;0.00;0.00;0.62;0.00;0.00;0.62;3.47;1.83;;;19.40;25.30;;;;;;2263403;61;20413;-64